< < Back
Terminal Aerodrome Forecast


Current Version              Previous Versions:   1  2  3  4  5  6  7  8  9  

Terminal Aerodrome Forecast

505
FTUS42 KMLB 171526 AAA
TAFDAB
TAF AMD
KDAB 171526Z 1715/1812 04006KT P6SM BKN015
     FM171700 05007KT P6SM SCT020 BKN035
     FM171900 06008KT P6SM SCT030 BKN045
      TEMPO 1720/1722 3SM TSRA BKN025CB
     FM180000 07003KT P6SM VCSH SCT030 BKN060 OVC080
     FM180300 20003KT P6SM SCT030 SCT080 BKN100=



Latest METAR

834
SAUS80 KWBC 180800
MTRDAB
METAR KDAB 180753Z 00000KT 7SM SCT070 OVC120 21/21 A2997 RMK AO2 SLP147
T02110206


USA.gov is the U.S. government's official web portal to all federal, state and local government web resources and services.